Minerva Concert — SVWC — position and weather

sailwx.info

Track history (hours):
 
Tides and Currents Weather Stations Pressure Air Temp Water Temp Dewpoint Dewpoint Depression Visibility Wind Speed Wind Dir Waves Ship Positions

Minerva Concert

Last reported at 2018-Apr-26 18:58 UTC. Time now 2018-Apr-26 19:18 UTC.
Position N 32°48' E 012°41'.

Length 241 m; draft 8 m.

Type: Ship. MMSI: 240110000.

Date/timePositionNaut miles runAvg speedWind from/ knotsBaromVisibWave heightAir tempDewpointWater temp
2018-Apr-26 18:58N 32°48' E 012°41'0 0.0
2018-Apr-26 18:25N 32°48' E 012°41'0 0.1
2018-Apr-26 17:58N 32°48' E 012°41'0 0.0
2018-Apr-26 14:13N 32°48' E 012°41'0 0.0
2018-Apr-26 12:13N 32°48' E 012°41'0 0.1
2018-Apr-26 11:55N 32°48' E 012°41'0 0.0
2018-Apr-26 11:28N 32°48' E 012°41'0 0.0
2018-Apr-26 10:55N 32°48' E 012°41'0 0.0
2018-Apr-26 10:28N 32°48' E 012°41'0 0.1
2018-Apr-26 09:57N 32°48' E 012°41'1 0.9
2018-Apr-26 09:15N 32°49' E 012°40'1 3.4
2018-Apr-26 09:00N 32°50' E 012°40'0 0.6
2018-Apr-26 08:28N 32°49' E 012°40'0 0.1
2018-Apr-26 07:40N 32°49' E 012°40'0 0.0
2018-Apr-26 07:25N 32°49' E 012°40'0 0.0
2018-Apr-26 04:46N 32°49' E 012°40'0 0.0
2018-Apr-25 22:07N 32°49' E 012°40'0 0.0
2018-Apr-25 21:58N 32°49' E 012°40'0 0.0
2018-Apr-25 21:28N 32°49' E 012°40'0 0.0
2018-Apr-25 20:58N 32°49' E 012°40'0 0.0
2018-Apr-25 20:28N 32°49' E 012°40'0 0.0
2018-Apr-25 19:58N 32°49' E 012°40'0 0.0
2018-Apr-25 19:19N 32°49' E 012°40'0 0.0
2018-Apr-25 18:58N 32°49' E 012°40'0 0.0
2018-Apr-25 18:28N 32°49' E 012°40'0 0.0
2018-Apr-25 17:58N 32°49' E 012°40'0 0.8
2018-Apr-25 17:28N 32°50' E 012°40'2 4.3
2018-Apr-25 16:59N 32°52' E 012°40'2 4.5
2018-Apr-25 16:30N 32°54' E 012°41'510.9
2018-Apr-25 16:00N 32°59' E 012°44'510.5
2018-Apr-25 15:30N 33°04' E 012°46'611.1
2018-Apr-25 15:00N 33°05' E 012°53'611.2
2018-Apr-25 14:30N 33°07' E 012°59'611.2
2018-Apr-25 14:00N 33°09' E 013°05'611.2
2018-Apr-25 13:30N 33°11' E 013°11'611.2
2018-Apr-25 13:00N 33°13' E 013°18'611.4
2018-Apr-25 12:30N 33°15' E 013°24'612.0
2018-Apr-25 12:00N 33°17' E 013°31'611.7
2018-Apr-25 11:30N 33°19' E 013°38'611.7
2018-Apr-25 11:00N 33°20' E 013°44'911.7
2018-Apr-25 10:13N 33°24' E 013°55'311.6
2018-Apr-25 10:00N 33°25' E 013°58'611.6
2018-Apr-25 09:28N 33°27' E 014°04'2111.2
2018-Apr-25 07:33N 33°33' E 014°29'111.1
2018-Apr-25 07:26N 33°34' E 014°30'511.0
2018-Apr-25 07:00N 33°35' E 014°36'611.1
2018-Apr-25 06:30N 33°37' E 014°42'1311.6
2018-Apr-25 05:24N 33°41' E 014°57'511.7
2018-Apr-25 05:00N 33°43' E 015°02'611.5
2018-Apr-25 04:29N 33°45' E 015°09'611.4
2018-Apr-25 03:58N 33°47' E 015°15'911.6
2018-Apr-25 03:14N 33°50' E 015°25'311.5
2018-Apr-25 03:00N 33°50' E 015°28'611.6
2018-Apr-25 02:28N 33°53' E 015°35'811.5
2018-Apr-25 01:48N 33°55' E 015°44'411.6
2018-Apr-25 01:30N 33°56' E 015°48'611.6
2018-Apr-25 01:00N 33°58' E 015°54'611.4
2018-Apr-25 00:30N 34°00' E 016°01'611.3
2018-Apr-24 23:58N 34°02' E 016°08'511.6
2018-Apr-24 23:30N 34°04' E 016°14'611.8
2018-Apr-24 22:59N 34°06' E 016°21'611.7
2018-Apr-24 22:30N 34°08' E 016°27'1011.7
2018-Apr-24 21:37N 34°11' E 016°39'211.7
2018-Apr-24 21:29N 34°12' E 016°41'611.6
2018-Apr-24 21:00N 34°13' E 016°47'1611.6
2018-Apr-24 19:39N 34°18' E 017°05'311.7
2018-Apr-24 19:25N 34°19' E 017°08'511.7
2018-Apr-24 18:59N 34°21' E 017°14'2411.9
2018-Apr-24 16:57N 34°29' E 017°42'611.9
2018-Apr-24 16:29N 34°31' E 017°48'29811.3
2018-Apr-23 13:58N 36°24' E 023°27'511.7
2018-Apr-23 13:30N 36°29' E 023°30'611.9
2018-Apr-23 12:59N 36°34' E 023°34'611.7
2018-Apr-23 12:30N 36°40' E 023°37'611.5
2018-Apr-23 12:00N 36°45' E 023°40'611.4
2018-Apr-23 11:30N 36°50' E 023°42'1711.6
2018-Apr-23 10:01N 37°07' E 023°43'011.4
2018-Apr-23 10:00N 37°08' E 023°43'611.7
2018-Apr-23 09:28N 37°14' E 023°43'611.9
2018-Apr-23 08:59N 37°20' E 023°43'611.7
2018-Apr-23 08:30N 37°25' E 023°42'611.7
2018-Apr-23 08:00N 37°31' E 023°42'611.5
2018-Apr-23 07:30N 37°37' E 023°42'611.4
2018-Apr-23 07:00N 37°42' E 023°41'611.9
2018-Apr-23 06:30N 37°48' E 023°37'510.6
2018-Apr-23 06:00N 37°52' E 023°33'2 3.4
2018-Apr-23 05:29N 37°52' E 023°31'0 0.2
2018-Apr-23 04:59N 37°52' E 023°31'0 0.1
2018-Apr-23 04:29N 37°52' E 023°31'0 0.1
2018-Apr-23 03:59N 37°52' E 023°31'0 0.0
2018-Apr-23 03:29N 37°52' E 023°31'0 0.1
2018-Apr-23 02:59N 37°52' E 023°31'0 0.0
2018-Apr-23 02:29N 37°52' E 023°31'0 0.0
2018-Apr-23 01:59N 37°52' E 023°31'0 0.0
2018-Apr-23 01:29N 37°52' E 023°31'0 0.0
2018-Apr-23 00:59N 37°52' E 023°31'0 0.0
2018-Apr-23 00:29N 37°52' E 023°31'0 0.0
2018-Apr-22 23:59N 37°52' E 023°31'0 0.0
2018-Apr-22 23:29N 37°52' E 023°31'0 0.1
2018-Apr-22 22:59N 37°52' E 023°31'0 0.2
2018-Apr-22 22:29N 37°52' E 023°31'0 0.2
2018-Apr-22 21:59N 37°52' E 023°31'0 0.0
2018-Apr-22 21:29N 37°52' E 023°31'0 0.1
2018-Apr-22 20:59N 37°52' E 023°31'0 0.0
2018-Apr-22 20:29N 37°52' E 023°31'0 0.1
2018-Apr-22 19:59N 37°52' E 023°31'0 0.1
2018-Apr-22 19:29N 37°52' E 023°31'0 0.0
2018-Apr-22 18:59N 37°52' E 023°31'0 0.0
2018-Apr-22 18:29N 37°52' E 023°31'0 0.1
2018-Apr-22 17:59N 37°52' E 023°31'0 0.1
2018-Apr-22 17:29N 37°52' E 023°31'0 0.1
2018-Apr-22 16:59N 37°52' E 023°31'0 0.0
2018-Apr-22 16:29N 37°52' E 023°31'0 0.0
2018-Apr-22 15:59N 37°52' E 023°31'0 0.0
2018-Apr-22 15:29N 37°52' E 023°31'0 0.0
2018-Apr-22 14:59N 37°52' E 023°31'0 0.0
2018-Apr-22 14:29N 37°52' E 023°31'0 0.0
2018-Apr-22 13:59N 37°52' E 023°31'0 0.2
2018-Apr-22 13:29N 37°52' E 023°31'0 0.2
2018-Apr-22 12:59N 37°52' E 023°31'0 0.1
2018-Apr-22 12:29N 37°52' E 023°31'0 0.0
2018-Apr-22 11:59N 37°52' E 023°31'0 0.0
2018-Apr-22 11:29N 37°52' E 023°31'0 0.0
2018-Apr-22 10:59N 37°52' E 023°31'0 0.0
2018-Apr-22 10:29N 37°52' E 023°31'0 0.0
2018-Apr-22 09:59N 37°52' E 023°31'0 0.0
2018-Apr-22 09:29N 37°52' E 023°31'0 0.0
2018-Apr-22 08:59N 37°52' E 023°31'0 0.0
2018-Apr-22 08:29N 37°52' E 023°31'0 0.0
2018-Apr-22 07:59N 37°52' E 023°31'0 0.1
2018-Apr-22 07:29N 37°52' E 023°31'0 0.0
2018-Apr-22 06:59N 37°52' E 023°31'0 0.1
2018-Apr-22 06:29N 37°52' E 023°31'0 0.2
2018-Apr-22 05:59N 37°52' E 023°31'0 0.0
2018-Apr-22 05:29N 37°52' E 023°31'0 0.0
2018-Apr-22 04:59N 37°52' E 023°31'0 0.1
2018-Apr-22 04:29N 37°52' E 023°31'0 0.0
2018-Apr-22 03:59N 37°52' E 023°31'0 0.1
2018-Apr-22 03:29N 37°52' E 023°31'0 0.0
2018-Apr-22 02:59N 37°52' E 023°31'0 0.0
2018-Apr-22 02:29N 37°52' E 023°31'0 0.0
2018-Apr-22 01:59N 37°52' E 023°31'0 0.1
2018-Apr-22 01:29N 37°52' E 023°31'0 0.0
2018-Apr-22 00:59N 37°52' E 023°31'0 0.1
2018-Apr-22 00:29N 37°52' E 023°31'0 0.1
2018-Apr-21 23:59N 37°52' E 023°31'0 0.0
2018-Apr-21 23:29N 37°52' E 023°31'0 0.1
2018-Apr-21 22:59N 37°52' E 023°31'0 0.1
2018-Apr-21 22:29N 37°52' E 023°31'0 0.0
2018-Apr-21 21:59N 37°52' E 023°31'0 0.1
2018-Apr-21 21:29N 37°52' E 023°31'0 0.1
2018-Apr-21 20:59N 37°52' E 023°31'0 0.0
2018-Apr-21 20:29N 37°52' E 023°31'0 0.0
2018-Apr-21 19:59N 37°52' E 023°31'0 0.0
2018-Apr-21 19:29N 37°52' E 023°31'0 0.0
2018-Apr-21 18:59N 37°52' E 023°31'0 0.1
2018-Apr-21 18:29N 37°52' E 023°31'0 0.0
2018-Apr-21 17:59N 37°52' E 023°31'0 0.0
2018-Apr-21 17:29N 37°52' E 023°31'0 0.0
2018-Apr-21 16:59N 37°52' E 023°31'0 0.1
2018-Apr-21 16:29N 37°52' E 023°31'0 0.1
2018-Apr-21 15:59N 37°52' E 023°31'0 0.0
2018-Apr-21 15:29N 37°52' E 023°31'0 0.0
2018-Apr-21 14:59N 37°52' E 023°31'0 0.0
2018-Apr-21 14:29N 37°52' E 023°31'0 0.0
2018-Apr-21 13:59N 37°52' E 023°31'0 0.0
2018-Apr-21 13:29N 37°52' E 023°31'0 0.0
2018-Apr-21 12:59N 37°52' E 023°31'0 0.0
2018-Apr-21 12:29N 37°52' E 023°31'0 0.0
2018-Apr-21 11:59N 37°52' E 023°31'0 0.0
2018-Apr-21 11:29N 37°52' E 023°31'0 0.0
2018-Apr-21 10:59N 37°52' E 023°31'0 0.0
2018-Apr-21 10:29N 37°52' E 023°31'0 0.0
2018-Apr-21 09:59N 37°52' E 023°31'0 0.0
2018-Apr-21 09:29N 37°52' E 023°31'0 0.0
2018-Apr-21 08:59N 37°52' E 023°31'0 0.0
2018-Apr-21 08:29N 37°52' E 023°31'0 0.0
2018-Apr-21 07:59N 37°52' E 023°31'0 0.0
2018-Apr-21 07:29N 37°52' E 023°31'0 0.1
2018-Apr-21 06:59N 37°52' E 023°31'0 0.1
2018-Apr-21 06:29N 37°52' E 023°31'0 0.1
2018-Apr-21 05:59N 37°52' E 023°31'0 0.0
2018-Apr-21 05:29N 37°52' E 023°31'0 0.0
2018-Apr-21 04:59N 37°52' E 023°31'0 0.1
2018-Apr-21 04:29N 37°52' E 023°31'0 0.0
2018-Apr-21 03:59N 37°52' E 023°31'0 0.1
2018-Apr-21 03:29N 37°52' E 023°31'0 0.1
2018-Apr-21 02:59N 37°52' E 023°31'0 0.0
2018-Apr-21 02:29N 37°52' E 023°31'0 0.0
2018-Apr-21 01:59N 37°52' E 023°31'0 0.0
2018-Apr-21 01:29N 37°52' E 023°31'0 0.0
2018-Apr-21 00:59N 37°52' E 023°31'0 0.1
2018-Apr-21 00:29N 37°52' E 023°31'0 0.1
2018-Apr-20 23:59N 37°52' E 023°31'0 0.0
2018-Apr-20 23:29N 37°52' E 023°31'0 0.1
2018-Apr-20 22:59N 37°52' E 023°31'0 0.1
2018-Apr-20 22:29N 37°52' E 023°31'0 0.0
2018-Apr-20 21:59N 37°52' E 023°31'0 0.0
2018-Apr-20 21:29N 37°52' E 023°31'0 0.0
2018-Apr-20 20:59N 37°52' E 023°31'0 0.0
2018-Apr-20 20:29N 37°52' E 023°31'0 0.0
2018-Apr-20 19:59N 37°52' E 023°31'0 0.0
2018-Apr-20 19:29N 37°52' E 023°31'0 0.1
2018-Apr-20 18:59N 37°52' E 023°31'0 0.0
2018-Apr-20 18:29N 37°52' E 023°31'0 0.1
2018-Apr-20 17:59N 37°52' E 023°31'0 0.0
2018-Apr-20 17:29N 37°52' E 023°31'0 0.0
2018-Apr-20 16:59N 37°52' E 023°31'0 0.0
2018-Apr-20 16:29N 37°52' E 023°31'0 0.0
2018-Apr-20 15:59N 37°52' E 023°31'0 0.1
2018-Apr-20 15:29N 37°52' E 023°31'0 0.0
2018-Apr-20 14:59N 37°52' E 023°31'0 0.0
2018-Apr-20 14:29N 37°52' E 023°31'0 0.3
2018-Apr-20 13:59N 37°52' E 023°31'0 0.0
2018-Apr-20 13:29N 37°52' E 023°31'0 0.0
2018-Apr-20 12:59N 37°52' E 023°31'0 0.0
2018-Apr-20 12:29N 37°52' E 023°31'0 0.4
2018-Apr-20 11:59N 37°52' E 023°31'0 0.4
2018-Apr-20 11:29N 37°52' E 023°31'0 0.1
2018-Apr-20 10:59N 37°52' E 023°31'0 0.1
2018-Apr-20 10:29N 37°52' E 023°31'0 0.1
2018-Apr-20 09:59N 37°52' E 023°31'0 0.1
2018-Apr-20 09:29N 37°52' E 023°31'0 0.0
2018-Apr-20 08:59N 37°52' E 023°31'0 0.1
2018-Apr-20 08:29N 37°52' E 023°31'0 0.1
2018-Apr-20 07:59N 37°52' E 023°31'0 0.0
2018-Apr-20 07:29N 37°52' E 023°31'0 0.0
2018-Apr-20 06:59N 37°52' E 023°31'0 0.0
2018-Apr-20 06:29N 37°52' E 023°31'0 0.0
2018-Apr-20 05:59N 37°52' E 023°31'0 0.0
2018-Apr-20 05:29N 37°52' E 023°31'0 0.0
2018-Apr-20 04:59N 37°52' E 023°31'0 0.0
2018-Apr-20 04:29N 37°52' E 023°31'0 0.1
2018-Apr-20 03:59N 37°52' E 023°31'0 0.0
2018-Apr-20 03:29N 37°52' E 023°31'0 0.0
2018-Apr-20 02:59N 37°52' E 023°31'0 0.0
2018-Apr-20 02:29N 37°52' E 023°31'0 0.0
2018-Apr-20 01:59N 37°52' E 023°31'0 0.1
2018-Apr-20 01:29N 37°52' E 023°31'0 0.1
2018-Apr-20 00:59N 37°52' E 023°31'0 0.0
2018-Apr-20 00:26N 37°52' E 023°31'0 0.0
2018-Apr-19 23:59N 37°52' E 023°31'0 0.0
2018-Apr-19 23:26N 37°52' E 023°31'0 0.0
2018-Apr-19 22:59N 37°52' E 023°31'0 0.0
2018-Apr-19 22:29N 37°52' E 023°31'0 0.0
2018-Apr-19 21:59N 37°52' E 023°31'0 0.0
2018-Apr-19 21:29N 37°52' E 023°31'0 0.1
2018-Apr-19 20:59N 37°52' E 023°31'0 0.1
2018-Apr-19 20:29N 37°52' E 023°31'0 0.1
2018-Apr-19 19:59N 37°52' E 023°31'0 0.0
2018-Apr-19 19:29N 37°52' E 023°31'0 0.0
2018-Apr-19 18:59N 37°52' E 023°31'0 0.0
2018-Apr-19 18:29N 37°52' E 023°31'0 0.0
2018-Apr-19 17:59N 37°52' E 023°31'0 0.0
2018-Apr-19 17:29N 37°52' E 023°31'0 0.0
2018-Apr-19 16:59N 37°52' E 023°31'0 0.0
2018-Apr-19 16:29N 37°52' E 023°31'0 0.0
2018-Apr-19 15:59N 37°52' E 023°31'0 0.0
2018-Apr-19 15:29N 37°52' E 023°31'0 0.0
2018-Apr-19 14:59N 37°52' E 023°31'0 0.1
2018-Apr-19 14:29N 37°52' E 023°31'0 0.0
2018-Apr-19 13:59N 37°52' E 023°31'0 0.0
2018-Apr-19 13:29N 37°52' E 023°31'0 0.0
2018-Apr-19 12:59N 37°52' E 023°31'0 0.1
2018-Apr-19 12:29N 37°52' E 023°31'0 0.0
2018-Apr-19 11:59N 37°52' E 023°31'0 0.0
2018-Apr-19 11:29N 37°52' E 023°31'0 0.0
2018-Apr-19 10:59N 37°52' E 023°31'0 0.0
2018-Apr-19 10:29N 37°52' E 023°31'0 0.0
2018-Apr-19 09:59N 37°52' E 023°31'0 0.0
2018-Apr-19 09:29N 37°52' E 023°31'0 0.0
2018-Apr-19 08:59N 37°52' E 023°31'0 0.0
2018-Apr-19 08:29N 37°52' E 023°31'0 0.1
2018-Apr-19 07:59N 37°52' E 023°31'0 0.0
2018-Apr-19 07:29N 37°52' E 023°31'0 0.0
2018-Apr-19 06:59N 37°52' E 023°31'0 0.0
2018-Apr-19 06:29N 37°52' E 023°31'0 0.0
2018-Apr-19 05:59N 37°52' E 023°31'0 0.0
2018-Apr-19 05:29N 37°52' E 023°31'0 0.0
2018-Apr-19 04:59N 37°52' E 023°31'0 0.0
2018-Apr-19 04:29N 37°52' E 023°31'0 0.1
2018-Apr-19 03:59N 37°52' E 023°31'0 0.0
2018-Apr-19 03:29N 37°52' E 023°31'0 0.0
2018-Apr-19 02:59N 37°52' E 023°31'0 0.0
2018-Apr-19 02:29N 37°52' E 023°31'0 0.0
2018-Apr-19 01:59N 37°52' E 023°31'0 0.1
2018-Apr-19 01:29N 37°52' E 023°31'0 0.0
2018-Apr-19 00:59N 37°52' E 023°31'0 0.0
2018-Apr-19 00:29N 37°52' E 023°31'0 0.1
2018-Apr-18 23:59N 37°52' E 023°31'0 0.0
2018-Apr-18 23:29N 37°52' E 023°31'0 0.0
2018-Apr-18 22:59N 37°52' E 023°31'0 0.1
2018-Apr-18 22:29N 37°52' E 023°31'0 0.0
2018-Apr-18 21:59N 37°52' E 023°31'0 0.0
2018-Apr-18 21:29N 37°52' E 023°31'0 0.1
2018-Apr-18 20:59N 37°52' E 023°31'0 0.0
2018-Apr-18 20:29N 37°52' E 023°31'0 0.0
2018-Apr-18 19:59N 37°52' E 023°31'0 0.1
2018-Apr-18 19:29N 37°52' E 023°31'0 0.0
2018-Apr-18 18:59N 37°52' E 023°31'0 0.1
2018-Apr-18 18:29N 37°52' E 023°31'0 0.0
2018-Apr-18 17:59N 37°52' E 023°31'0 0.1
2018-Apr-18 17:29N 37°52' E 023°31'0 0.0
2018-Apr-18 16:59N 37°52' E 023°31'0 0.1
2018-Apr-18 16:29N 37°52' E 023°31'0 0.1
2018-Apr-18 15:59N 37°52' E 023°31'0 0.1
2018-Apr-18 15:29N 37°52' E 023°31'0 0.0
2018-Apr-18 14:59N 37°52' E 023°31'0 0.0
2018-Apr-18 14:29N 37°52' E 023°31'0 0.2
2018-Apr-18 13:59N 37°52' E 023°31'0 0.1
2018-Apr-18 13:29N 37°52' E 023°31'0 0.1
2018-Apr-18 12:59N 37°52' E 023°31'0 0.1
2018-Apr-18 12:29N 37°52' E 023°31'0 0.0
2018-Apr-18 11:59N 37°53' E 023°31'0 0.0
2018-Apr-18 11:29N 37°53' E 023°31'0 0.0
2018-Apr-18 10:59N 37°53' E 023°31'0 0.0
2018-Apr-18 10:29N 37°53' E 023°31'0 0.0
2018-Apr-18 09:59N 37°53' E 023°31'0 0.1
2018-Apr-18 09:29N 37°52' E 023°31'0 0.1
2018-Apr-18 08:59N 37°52' E 023°31'0 0.0
2018-Apr-18 08:29N 37°52' E 023°31'0 0.1
2018-Apr-18 07:59N 37°52' E 023°31'0 0.0
2018-Apr-18 07:29N 37°52' E 023°31'0 0.1
2018-Apr-18 06:59N 37°52' E 023°31'0 0.1
2018-Apr-18 06:29N 37°52' E 023°31'0 0.1
2018-Apr-18 05:59N 37°52' E 023°31'0 0.1
2018-Apr-18 05:29N 37°52' E 023°31'0 0.0
2018-Apr-18 04:59N 37°52' E 023°31'0 0.0
2018-Apr-18 04:29N 37°52' E 023°31'0 0.0
2018-Apr-18 03:59N 37°52' E 023°31'0 0.0
2018-Apr-18 03:29N 37°52' E 023°31'0 0.0
2018-Apr-18 02:59N 37°52' E 023°31'0 0.0
2018-Apr-18 02:29N 37°52' E 023°31'0 0.0
2018-Apr-18 01:59N 37°52' E 023°31'0 0.1
2018-Apr-18 01:29N 37°52' E 023°31'0 0.1
2018-Apr-18 00:59N 37°52' E 023°31'0 0.0
2018-Apr-18 00:29N 37°52' E 023°31'0 0.0
2018-Apr-17 23:59N 37°52' E 023°31'0 0.0
2018-Apr-17 23:29N 37°52' E 023°31'0 0.0
2018-Apr-17 22:59N 37°52' E 023°31'0 0.0
2018-Apr-17 22:29N 37°52' E 023°31'0 0.0
2018-Apr-17 21:59N 37°52' E 023°31'0 0.0
2018-Apr-17 21:29N 37°52' E 023°31'0 0.0
2018-Apr-17 20:59N 37°52' E 023°31'0 0.0
2018-Apr-17 20:29N 37°52' E 023°31'0 0.0
2018-Apr-17 19:59N 37°52' E 023°31'0 0.0
2018-Apr-17 19:29N 37°52' E 023°31'0 0.0
2018-Apr-17 18:59N 37°52' E 023°31'0 0.0
2018-Apr-17 18:29N 37°52' E 023°31'0 0.1
2018-Apr-17 17:59N 37°52' E 023°31'0 0.0
2018-Apr-17 17:29N 37°52' E 023°31'0 0.0
2018-Apr-17 16:59N 37°52' E 023°31'0 0.0
2018-Apr-17 16:29N 37°52' E 023°31'0 0.1
2018-Apr-17 15:59N 37°52' E 023°31'0 0.1
2018-Apr-17 15:29N 37°52' E 023°31'0 0.0
2018-Apr-17 14:59N 37°52' E 023°31'0 0.0
2018-Apr-17 14:29N 37°52' E 023°31'0 0.0
2018-Apr-17 13:59N 37°53' E 023°31'0 0.1
2018-Apr-17 13:29N 37°53' E 023°31'0 0.2
2018-Apr-17 12:59N 37°53' E 023°31'0 0.1
2018-Apr-17 12:29N 37°52' E 023°31'0 0.0
2018-Apr-17 11:59N 37°52' E 023°31'0 0.0
2018-Apr-17 11:29N 37°52' E 023°31'0 0.0
2018-Apr-17 10:59N 37°52' E 023°31'0 0.1
2018-Apr-17 10:29N 37°52' E 023°31'0 0.0
2018-Apr-17 09:59N 37°52' E 023°31'0 0.1
2018-Apr-17 09:26N 37°52' E 023°31'0 0.0
2018-Apr-17 08:59N 37°52' E 023°31'0 0.0
2018-Apr-17 08:29N 37°52' E 023°31'0 0.0
2018-Apr-17 07:59N 37°52' E 023°31'0 0.0
2018-Apr-17 07:29N 37°52' E 023°31'0 0.1
2018-Apr-17 06:59N 37°52' E 023°31'0 0.1
2018-Apr-17 06:29N 37°52' E 023°31'0 0.1
2018-Apr-17 05:59N 37°52' E 023°31'0 0.0
2018-Apr-17 05:29N 37°52' E 023°31'0 0.0
2018-Apr-17 04:59N 37°52' E 023°31'0 0.1
2018-Apr-17 04:29N 37°52' E 023°31'0 0.0
2018-Apr-17 03:59N 37°52' E 023°31'0 0.0
2018-Apr-17 03:29N 37°52' E 023°31'0 0.1
2018-Apr-17 02:59N 37°52' E 023°31'0 0.3
2018-Apr-17 02:29N 37°52' E 023°31'0 0.1
2018-Apr-17 01:59N 37°52' E 023°31'0 0.0
2018-Apr-17 01:29N 37°52' E 023°31'0 0.0
2018-Apr-17 00:59N 37°52' E 023°31'0 0.0
2018-Apr-17 00:29N 37°52' E 023°31'0 0.0
2018-Apr-16 23:59N 37°52' E 023°31'0 0.0
2018-Apr-16 23:29N 37°52' E 023°31'0 0.0
2018-Apr-16 22:59N 37°52' E 023°31'0 0.1
2018-Apr-16 22:29N 37°52' E 023°31'0 0.2
2018-Apr-16 21:59N 37°52' E 023°31'0 0.2
2018-Apr-16 21:29N 37°53' E 023°31'0 0.1
2018-Apr-16 20:59N 37°53' E 023°31'0 0.1
2018-Apr-16 20:29N 37°52' E 023°31'0 0.1
2018-Apr-16 19:59N 37°52' E 023°31'0 0.0
2018-Apr-16 19:29N 37°52' E 023°31'0 0.0
2018-Apr-16 18:59N 37°52' E 023°31'  
Track history (hours):
 
Tides and Currents Weather Stations Pressure Air Temp Water Temp Dewpoint Dewpoint Depression Visibility Wind Speed Wind Dir Waves Ship Positions

Minerva Concert

Last reported at 2018-Apr-26 18:58 UTC. Time now 2018-Apr-26 19:18 UTC.
Position N 32°48' E 012°41'.

Length 241 m; draft 8 m.

Type: Ship. MMSI: 240110000.

Date/timePositionNaut miles runAvg speedWind from/ knotsBaromVisibWave heightAir tempDewpointWater temp
2018-Apr-26 18:58N 32°48' E 012°41'0 0.0
2018-Apr-26 18:25N 32°48' E 012°41'0 0.1
2018-Apr-26 17:58N 32°48' E 012°41'0 0.0
2018-Apr-26 14:13N 32°48' E 012°41'0 0.0
2018-Apr-26 12:13N 32°48' E 012°41'0 0.1
2018-Apr-26 11:55N 32°48' E 012°41'0 0.0
2018-Apr-26 11:28N 32°48' E 012°41'0 0.0
2018-Apr-26 10:55N 32°48' E 012°41'0 0.0
2018-Apr-26 10:28N 32°48' E 012°41'0 0.1
2018-Apr-26 09:57N 32°48' E 012°41'1 0.9
2018-Apr-26 09:15N 32°49' E 012°40'1 3.4
2018-Apr-26 09:00N 32°50' E 012°40'0 0.6
2018-Apr-26 08:28N 32°49' E 012°40'0 0.1
2018-Apr-26 07:40N 32°49' E 012°40'0 0.0
2018-Apr-26 07:25N 32°49' E 012°40'0 0.0
2018-Apr-26 04:46N 32°49' E 012°40'0 0.0
2018-Apr-25 22:07N 32°49' E 012°40'0 0.0
2018-Apr-25 21:58N 32°49' E 012°40'0 0.0
2018-Apr-25 21:28N 32°49' E 012°40'0 0.0
2018-Apr-25 20:58N 32°49' E 012°40'0 0.0
2018-Apr-25 20:28N 32°49' E 012°40'0 0.0
2018-Apr-25 19:58N 32°49' E 012°40'0 0.0
2018-Apr-25 19:19N 32°49' E 012°40'0 0.0
2018-Apr-25 18:58N 32°49' E 012°40'0 0.0
2018-Apr-25 18:28N 32°49' E 012°40'0 0.0
2018-Apr-25 17:58N 32°49' E 012°40'0 0.8
2018-Apr-25 17:28N 32°50' E 012°40'2 4.3
2018-Apr-25 16:59N 32°52' E 012°40'2 4.5
2018-Apr-25 16:30N 32°54' E 012°41'510.9
2018-Apr-25 16:00N 32°59' E 012°44'510.5
2018-Apr-25 15:30N 33°04' E 012°46'611.1
2018-Apr-25 15:00N 33°05' E 012°53'611.2
2018-Apr-25 14:30N 33°07' E 012°59'611.2
2018-Apr-25 14:00N 33°09' E 013°05'611.2
2018-Apr-25 13:30N 33°11' E 013°11'611.2
2018-Apr-25 13:00N 33°13' E 013°18'611.4
2018-Apr-25 12:30N 33°15' E 013°24'612.0
2018-Apr-25 12:00N 33°17' E 013°31'611.7
2018-Apr-25 11:30N 33°19' E 013°38'611.7
2018-Apr-25 11:00N 33°20' E 013°44'911.7
2018-Apr-25 10:13N 33°24' E 013°55'311.6
2018-Apr-25 10:00N 33°25' E 013°58'611.6
2018-Apr-25 09:28N 33°27' E 014°04'2111.2
2018-Apr-25 07:33N 33°33' E 014°29'111.1
2018-Apr-25 07:26N 33°34' E 014°30'511.0
2018-Apr-25 07:00N 33°35' E 014°36'611.1
2018-Apr-25 06:30N 33°37' E 014°42'1311.6
2018-Apr-25 05:24N 33°41' E 014°57'511.7
2018-Apr-25 05:00N 33°43' E 015°02'611.5
2018-Apr-25 04:29N 33°45' E 015°09'611.4
2018-Apr-25 03:58N 33°47' E 015°15'911.6
2018-Apr-25 03:14N 33°50' E 015°25'311.5
2018-Apr-25 03:00N 33°50' E 015°28'611.6
2018-Apr-25 02:28N 33°53' E 015°35'811.5
2018-Apr-25 01:48N 33°55' E 015°44'411.6
2018-Apr-25 01:30N 33°56' E 015°48'611.6
2018-Apr-25 01:00N 33°58' E 015°54'611.4
2018-Apr-25 00:30N 34°00' E 016°01'611.3
2018-Apr-24 23:58N 34°02' E 016°08'511.6
2018-Apr-24 23:30N 34°04' E 016°14'611.8
2018-Apr-24 22:59N 34°06' E 016°21'611.7
2018-Apr-24 22:30N 34°08' E 016°27'1011.7
2018-Apr-24 21:37N 34°11' E 016°39'211.7
2018-Apr-24 21:29N 34°12' E 016°41'611.6
2018-Apr-24 21:00N 34°13' E 016°47'1611.6
2018-Apr-24 19:39N 34°18' E 017°05'311.7
2018-Apr-24 19:25N 34°19' E 017°08'511.7
2018-Apr-24 18:59N 34°21' E 017°14'2411.9
2018-Apr-24 16:57N 34°29' E 017°42'611.9
2018-Apr-24 16:29N 34°31' E 017°48'29811.3
2018-Apr-23 13:58N 36°24' E 023°27'511.7
2018-Apr-23 13:30N 36°29' E 023°30'611.9
2018-Apr-23 12:59N 36°34' E 023°34'611.7
2018-Apr-23 12:30N 36°40' E 023°37'611.5
2018-Apr-23 12:00N 36°45' E 023°40'611.4
2018-Apr-23 11:30N 36°50' E 023°42'1711.6
2018-Apr-23 10:01N 37°07' E 023°43'011.4
2018-Apr-23 10:00N 37°08' E 023°43'611.7
2018-Apr-23 09:28N 37°14' E 023°43'611.9
2018-Apr-23 08:59N 37°20' E 023°43'611.7
2018-Apr-23 08:30N 37°25' E 023°42'611.7
2018-Apr-23 08:00N 37°31' E 023°42'611.5
2018-Apr-23 07:30N 37°37' E 023°42'611.4
2018-Apr-23 07:00N 37°42' E 023°41'611.9
2018-Apr-23 06:30N 37°48' E 023°37'510.6
2018-Apr-23 06:00N 37°52' E 023°33'2 3.4
2018-Apr-23 05:29N 37°52' E 023°31'0 0.2
2018-Apr-23 04:59N 37°52' E 023°31'0 0.1
2018-Apr-23 04:29N 37°52' E 023°31'0 0.1
2018-Apr-23 03:59N 37°52' E 023°31'0 0.0
2018-Apr-23 03:29N 37°52' E 023°31'0 0.1
2018-Apr-23 02:59N 37°52' E 023°31'0 0.0
2018-Apr-23 02:29N 37°52' E 023°31'0 0.0
2018-Apr-23 01:59N 37°52' E 023°31'0 0.0
2018-Apr-23 01:29N 37°52' E 023°31'0 0.0
2018-Apr-23 00:59N 37°52' E 023°31'0 0.0
2018-Apr-23 00:29N 37°52' E 023°31'0 0.0
2018-Apr-22 23:59N 37°52' E 023°31'0 0.0
2018-Apr-22 23:29N 37°52' E 023°31'0 0.1
2018-Apr-22 22:59N 37°52' E 023°31'0 0.2
2018-Apr-22 22:29N 37°52' E 023°31'0 0.2
2018-Apr-22 21:59N 37°52' E 023°31'0 0.0
2018-Apr-22 21:29N 37°52' E 023°31'0 0.1
2018-Apr-22 20:59N 37°52' E 023°31'0 0.0
2018-Apr-22 20:29N 37°52' E 023°31'0 0.1
2018-Apr-22 19:59N 37°52' E 023°31'0 0.1
2018-Apr-22 19:29N 37°52' E 023°31'0 0.0
2018-Apr-22 18:59N 37°52' E 023°31'0 0.0
2018-Apr-22 18:29N 37°52' E 023°31'0 0.1
2018-Apr-22 17:59N 37°52' E 023°31'0 0.1
2018-Apr-22 17:29N 37°52' E 023°31'0 0.1
2018-Apr-22 16:59N 37°52' E 023°31'0 0.0
2018-Apr-22 16:29N 37°52' E 023°31'0 0.0
2018-Apr-22 15:59N 37°52' E 023°31'0 0.0
2018-Apr-22 15:29N 37°52' E 023°31'0 0.0
2018-Apr-22 14:59N 37°52' E 023°31'0 0.0
2018-Apr-22 14:29N 37°52' E 023°31'0 0.0
2018-Apr-22 13:59N 37°52' E 023°31'0 0.2
2018-Apr-22 13:29N 37°52' E 023°31'0 0.2
2018-Apr-22 12:59N 37°52' E 023°31'0 0.1
2018-Apr-22 12:29N 37°52' E 023°31'0 0.0
2018-Apr-22 11:59N 37°52' E 023°31'0 0.0
2018-Apr-22 11:29N 37°52' E 023°31'0 0.0
2018-Apr-22 10:59N 37°52' E 023°31'0 0.0
2018-Apr-22 10:29N 37°52' E 023°31'0 0.0
2018-Apr-22 09:59N 37°52' E 023°31'0 0.0
2018-Apr-22 09:29N 37°52' E 023°31'0 0.0
2018-Apr-22 08:59N 37°52' E 023°31'0 0.0
2018-Apr-22 08:29N 37°52' E 023°31'0 0.0
2018-Apr-22 07:59N 37°52' E 023°31'0 0.1
2018-Apr-22 07:29N 37°52' E 023°31'0 0.0
2018-Apr-22 06:59N 37°52' E 023°31'0 0.1
2018-Apr-22 06:29N 37°52' E 023°31'0 0.2
2018-Apr-22 05:59N 37°52' E 023°31'0 0.0
2018-Apr-22 05:29N 37°52' E 023°31'0 0.0
2018-Apr-22 04:59N 37°52' E 023°31'0 0.1
2018-Apr-22 04:29N 37°52' E 023°31'0 0.0
2018-Apr-22 03:59N 37°52' E 023°31'0 0.1
2018-Apr-22 03:29N 37°52' E 023°31'0 0.0
2018-Apr-22 02:59N 37°52' E 023°31'0 0.0
2018-Apr-22 02:29N 37°52' E 023°31'0 0.0
2018-Apr-22 01:59N 37°52' E 023°31'0 0.1
2018-Apr-22 01:29N 37°52' E 023°31'0 0.0
2018-Apr-22 00:59N 37°52' E 023°31'0 0.1
2018-Apr-22 00:29N 37°52' E 023°31'0 0.1
2018-Apr-21 23:59N 37°52' E 023°31'0 0.0
2018-Apr-21 23:29N 37°52' E 023°31'0 0.1
2018-Apr-21 22:59N 37°52' E 023°31'0 0.1
2018-Apr-21 22:29N 37°52' E 023°31'0 0.0
2018-Apr-21 21:59N 37°52' E 023°31'0 0.1
2018-Apr-21 21:29N 37°52' E 023°31'0 0.1
2018-Apr-21 20:59N 37°52' E 023°31'0 0.0
2018-Apr-21 20:29N 37°52' E 023°31'0 0.0
2018-Apr-21 19:59N 37°52' E 023°31'0 0.0
2018-Apr-21 19:29N 37°52' E 023°31'0 0.0
2018-Apr-21 18:59N 37°52' E 023°31'0 0.1
2018-Apr-21 18:29N 37°52' E 023°31'0 0.0
2018-Apr-21 17:59N 37°52' E 023°31'0 0.0
2018-Apr-21 17:29N 37°52' E 023°31'0 0.0
2018-Apr-21 16:59N 37°52' E 023°31'0 0.1
2018-Apr-21 16:29N 37°52' E 023°31'0 0.1
2018-Apr-21 15:59N 37°52' E 023°31'0 0.0
2018-Apr-21 15:29N 37°52' E 023°31'0 0.0
2018-Apr-21 14:59N 37°52' E 023°31'0 0.0
2018-Apr-21 14:29N 37°52' E 023°31'0 0.0
2018-Apr-21 13:59N 37°52' E 023°31'0 0.0
2018-Apr-21 13:29N 37°52' E 023°31'0 0.0
2018-Apr-21 12:59N 37°52' E 023°31'0 0.0
2018-Apr-21 12:29N 37°52' E 023°31'0 0.0
2018-Apr-21 11:59N 37°52' E 023°31'0 0.0
2018-Apr-21 11:29N 37°52' E 023°31'0 0.0
2018-Apr-21 10:59N 37°52' E 023°31'0 0.0
2018-Apr-21 10:29N 37°52' E 023°31'0 0.0
2018-Apr-21 09:59N 37°52' E 023°31'0 0.0
2018-Apr-21 09:29N 37°52' E 023°31'0 0.0
2018-Apr-21 08:59N 37°52' E 023°31'0 0.0
2018-Apr-21 08:29N 37°52' E 023°31'0 0.0
2018-Apr-21 07:59N 37°52' E 023°31'0 0.0
2018-Apr-21 07:29N 37°52' E 023°31'0 0.1
2018-Apr-21 06:59N 37°52' E 023°31'0 0.1
2018-Apr-21 06:29N 37°52' E 023°31'0 0.1
2018-Apr-21 05:59N 37°52' E 023°31'0 0.0
2018-Apr-21 05:29N 37°52' E 023°31'0 0.0
2018-Apr-21 04:59N 37°52' E 023°31'0 0.1
2018-Apr-21 04:29N 37°52' E 023°31'0 0.0
2018-Apr-21 03:59N 37°52' E 023°31'0 0.1
2018-Apr-21 03:29N 37°52' E 023°31'0 0.1
2018-Apr-21 02:59N 37°52' E 023°31'0 0.0
2018-Apr-21 02:29N 37°52' E 023°31'0 0.0
2018-Apr-21 01:59N 37°52' E 023°31'0 0.0
2018-Apr-21 01:29N 37°52' E 023°31'0 0.0
2018-Apr-21 00:59N 37°52' E 023°31'0 0.1
2018-Apr-21 00:29N 37°52' E 023°31'0 0.1
2018-Apr-20 23:59N 37°52' E 023°31'0 0.0
2018-Apr-20 23:29N 37°52' E 023°31'0 0.1
2018-Apr-20 22:59N 37°52' E 023°31'0 0.1
2018-Apr-20 22:29N 37°52' E 023°31'0 0.0
2018-Apr-20 21:59N 37°52' E 023°31'0 0.0
2018-Apr-20 21:29N 37°52' E 023°31'0 0.0
2018-Apr-20 20:59N 37°52' E 023°31'0 0.0
2018-Apr-20 20:29N 37°52' E 023°31'0 0.0
2018-Apr-20 19:59N 37°52' E 023°31'0 0.0
2018-Apr-20 19:29N 37°52' E 023°31'0 0.1
2018-Apr-20 18:59N 37°52' E 023°31'0 0.0
2018-Apr-20 18:29N 37°52' E 023°31'0 0.1
2018-Apr-20 17:59N 37°52' E 023°31'0 0.0
2018-Apr-20 17:29N 37°52' E 023°31'0 0.0
2018-Apr-20 16:59N 37°52' E 023°31'0 0.0
2018-Apr-20 16:29N 37°52' E 023°31'0 0.0
2018-Apr-20 15:59N 37°52' E 023°31'0 0.1
2018-Apr-20 15:29N 37°52' E 023°31'0 0.0
2018-Apr-20 14:59N 37°52' E 023°31'0 0.0
2018-Apr-20 14:29N 37°52' E 023°31'0 0.3
2018-Apr-20 13:59N 37°52' E 023°31'0 0.0
2018-Apr-20 13:29N 37°52' E 023°31'0 0.0
2018-Apr-20 12:59N 37°52' E 023°31'0 0.0
2018-Apr-20 12:29N 37°52' E 023°31'0 0.4
2018-Apr-20 11:59N 37°52' E 023°31'0 0.4
2018-Apr-20 11:29N 37°52' E 023°31'0 0.1
2018-Apr-20 10:59N 37°52' E 023°31'0 0.1
2018-Apr-20 10:29N 37°52' E 023°31'0 0.1
2018-Apr-20 09:59N 37°52' E 023°31'0 0.1
2018-Apr-20 09:29N 37°52' E 023°31'0 0.0
2018-Apr-20 08:59N 37°52' E 023°31'0 0.1
2018-Apr-20 08:29N 37°52' E 023°31'0 0.1
2018-Apr-20 07:59N 37°52' E 023°31'0 0.0
2018-Apr-20 07:29N 37°52' E 023°31'0 0.0
2018-Apr-20 06:59N 37°52' E 023°31'0 0.0
2018-Apr-20 06:29N 37°52' E 023°31'0 0.0
2018-Apr-20 05:59N 37°52' E 023°31'0 0.0
2018-Apr-20 05:29N 37°52' E 023°31'0 0.0
2018-Apr-20 04:59N 37°52' E 023°31'0 0.0
2018-Apr-20 04:29N 37°52' E 023°31'0 0.1
2018-Apr-20 03:59N 37°52' E 023°31'0 0.0
2018-Apr-20 03:29N 37°52' E 023°31'0 0.0
2018-Apr-20 02:59N 37°52' E 023°31'0 0.0
2018-Apr-20 02:29N 37°52' E 023°31'0 0.0
2018-Apr-20 01:59N 37°52' E 023°31'0 0.1
2018-Apr-20 01:29N 37°52' E 023°31'0 0.1
2018-Apr-20 00:59N 37°52' E 023°31'0 0.0
2018-Apr-20 00:26N 37°52' E 023°31'0 0.0
2018-Apr-19 23:59N 37°52' E 023°31'0 0.0
2018-Apr-19 23:26N 37°52' E 023°31'0 0.0
2018-Apr-19 22:59N 37°52' E 023°31'0 0.0
2018-Apr-19 22:29N 37°52' E 023°31'0 0.0
2018-Apr-19 21:59N 37°52' E 023°31'0 0.0
2018-Apr-19 21:29N 37°52' E 023°31'0 0.1
2018-Apr-19 20:59N 37°52' E 023°31'0 0.1
2018-Apr-19 20:29N 37°52' E 023°31'0 0.1
2018-Apr-19 19:59N 37°52' E 023°31'0 0.0
2018-Apr-19 19:29N 37°52' E 023°31'0 0.0
2018-Apr-19 18:59N 37°52' E 023°31'0 0.0
2018-Apr-19 18:29N 37°52' E 023°31'0 0.0
2018-Apr-19 17:59N 37°52' E 023°31'0 0.0
2018-Apr-19 17:29N 37°52' E 023°31'0 0.0
2018-Apr-19 16:59N 37°52' E 023°31'0 0.0
2018-Apr-19 16:29N 37°52' E 023°31'0 0.0
2018-Apr-19 15:59N 37°52' E 023°31'0 0.0
2018-Apr-19 15:29N 37°52' E 023°31'0 0.0
2018-Apr-19 14:59N 37°52' E 023°31'0 0.1
2018-Apr-19 14:29N 37°52' E 023°31'0 0.0
2018-Apr-19 13:59N 37°52' E 023°31'0 0.0
2018-Apr-19 13:29N 37°52' E 023°31'0 0.0
2018-Apr-19 12:59N 37°52' E 023°31'0 0.1
2018-Apr-19 12:29N 37°52' E 023°31'0 0.0
2018-Apr-19 11:59N 37°52' E 023°31'0 0.0
2018-Apr-19 11:29N 37°52' E 023°31'0 0.0
2018-Apr-19 10:59N 37°52' E 023°31'0 0.0
2018-Apr-19 10:29N 37°52' E 023°31'0 0.0
2018-Apr-19 09:59N 37°52' E 023°31'0 0.0
2018-Apr-19 09:29N 37°52' E 023°31'0 0.0
2018-Apr-19 08:59N 37°52' E 023°31'0 0.0
2018-Apr-19 08:29N 37°52' E 023°31'0 0.1
2018-Apr-19 07:59N 37°52' E 023°31'0 0.0
2018-Apr-19 07:29N 37°52' E 023°31'0 0.0
2018-Apr-19 06:59N 37°52' E 023°31'0 0.0
2018-Apr-19 06:29N 37°52' E 023°31'0 0.0
2018-Apr-19 05:59N 37°52' E 023°31'0 0.0
2018-Apr-19 05:29N 37°52' E 023°31'0 0.0
2018-Apr-19 04:59N 37°52' E 023°31'0 0.0
2018-Apr-19 04:29N 37°52' E 023°31'0 0.1
2018-Apr-19 03:59N 37°52' E 023°31'0 0.0
2018-Apr-19 03:29N 37°52' E 023°31'0 0.0
2018-Apr-19 02:59N 37°52' E 023°31'0 0.0
2018-Apr-19 02:29N 37°52' E 023°31'0 0.0
2018-Apr-19 01:59N 37°52' E 023°31'0 0.1
2018-Apr-19 01:29N 37°52' E 023°31'0 0.0
2018-Apr-19 00:59N 37°52' E 023°31'0 0.0
2018-Apr-19 00:29N 37°52' E 023°31'0 0.1
2018-Apr-18 23:59N 37°52' E 023°31'0 0.0
2018-Apr-18 23:29N 37°52' E 023°31'0 0.0
2018-Apr-18 22:59N 37°52' E 023°31'0 0.1
2018-Apr-18 22:29N 37°52' E 023°31'0 0.0
2018-Apr-18 21:59N 37°52' E 023°31'0 0.0
2018-Apr-18 21:29N 37°52' E 023°31'0 0.1
2018-Apr-18 20:59N 37°52' E 023°31'0 0.0
2018-Apr-18 20:29N 37°52' E 023°31'0 0.0
2018-Apr-18 19:59N 37°52' E 023°31'0 0.1
2018-Apr-18 19:29N 37°52' E 023°31'0 0.0
2018-Apr-18 18:59N 37°52' E 023°31'0 0.1
2018-Apr-18 18:29N 37°52' E 023°31'0 0.0
2018-Apr-18 17:59N 37°52' E 023°31'0 0.1
2018-Apr-18 17:29N 37°52' E 023°31'0 0.0
2018-Apr-18 16:59N 37°52' E 023°31'0 0.1
2018-Apr-18 16:29N 37°52' E 023°31'0 0.1
2018-Apr-18 15:59N 37°52' E 023°31'0 0.1
2018-Apr-18 15:29N 37°52' E 023°31'0 0.0
2018-Apr-18 14:59N 37°52' E 023°31'0 0.0
2018-Apr-18 14:29N 37°52' E 023°31'0 0.2
2018-Apr-18 13:59N 37°52' E 023°31'0 0.1
2018-Apr-18 13:29N 37°52' E 023°31'0 0.1
2018-Apr-18 12:59N 37°52' E 023°31'0 0.1
2018-Apr-18 12:29N 37°52' E 023°31'0 0.0
2018-Apr-18 11:59N 37°53' E 023°31'0 0.0
2018-Apr-18 11:29N 37°53' E 023°31'0 0.0
2018-Apr-18 10:59N 37°53' E 023°31'0 0.0
2018-Apr-18 10:29N 37°53' E 023°31'0 0.0
2018-Apr-18 09:59N 37°53' E 023°31'0 0.1
2018-Apr-18 09:29N 37°52' E 023°31'0 0.1
2018-Apr-18 08:59N 37°52' E 023°31'0 0.0
2018-Apr-18 08:29N 37°52' E 023°31'0 0.1
2018-Apr-18 07:59N 37°52' E 023°31'0 0.0
2018-Apr-18 07:29N 37°52' E 023°31'0 0.1
2018-Apr-18 06:59N 37°52' E 023°31'0 0.1
2018-Apr-18 06:29N 37°52' E 023°31'0 0.1
2018-Apr-18 05:59N 37°52' E 023°31'0 0.1
2018-Apr-18 05:29N 37°52' E 023°31'0 0.0
2018-Apr-18 04:59N 37°52' E 023°31'0 0.0
2018-Apr-18 04:29N 37°52' E 023°31'0 0.0
2018-Apr-18 03:59N 37°52' E 023°31'0 0.0
2018-Apr-18 03:29N 37°52' E 023°31'0 0.0
2018-Apr-18 02:59N 37°52' E 023°31'0 0.0
2018-Apr-18 02:29N 37°52' E 023°31'0 0.0
2018-Apr-18 01:59N 37°52' E 023°31'0 0.1
2018-Apr-18 01:29N 37°52' E 023°31'0 0.1
2018-Apr-18 00:59N 37°52' E 023°31'0 0.0
2018-Apr-18 00:29N 37°52' E 023°31'0 0.0
2018-Apr-17 23:59N 37°52' E 023°31'0 0.0
2018-Apr-17 23:29N 37°52' E 023°31'0 0.0
2018-Apr-17 22:59N 37°52' E 023°31'0 0.0
2018-Apr-17 22:29N 37°52' E 023°31'0 0.0
2018-Apr-17 21:59N 37°52' E 023°31'0 0.0
2018-Apr-17 21:29N 37°52' E 023°31'0 0.0
2018-Apr-17 20:59N 37°52' E 023°31'0 0.0
2018-Apr-17 20:29N 37°52' E 023°31'0 0.0
2018-Apr-17 19:59N 37°52' E 023°31'0 0.0
2018-Apr-17 19:29N 37°52' E 023°31'0 0.0
2018-Apr-17 18:59N 37°52' E 023°31'0 0.0
2018-Apr-17 18:29N 37°52' E 023°31'0 0.1
2018-Apr-17 17:59N 37°52' E 023°31'0 0.0
2018-Apr-17 17:29N 37°52' E 023°31'0 0.0
2018-Apr-17 16:59N 37°52' E 023°31'0 0.0
2018-Apr-17 16:29N 37°52' E 023°31'0 0.1
2018-Apr-17 15:59N 37°52' E 023°31'0 0.1
2018-Apr-17 15:29N 37°52' E 023°31'0 0.0
2018-Apr-17 14:59N 37°52' E 023°31'0 0.0
2018-Apr-17 14:29N 37°52' E 023°31'0 0.0
2018-Apr-17 13:59N 37°53' E 023°31'0 0.1
2018-Apr-17 13:29N 37°53' E 023°31'0 0.2
2018-Apr-17 12:59N 37°53' E 023°31'0 0.1
2018-Apr-17 12:29N 37°52' E 023°31'0 0.0
2018-Apr-17 11:59N 37°52' E 023°31'0 0.0
2018-Apr-17 11:29N 37°52' E 023°31'0 0.0
2018-Apr-17 10:59N 37°52' E 023°31'0 0.1
2018-Apr-17 10:29N 37°52' E 023°31'0 0.0
2018-Apr-17 09:59N 37°52' E 023°31'0 0.1
2018-Apr-17 09:26N 37°52' E 023°31'0 0.0
2018-Apr-17 08:59N 37°52' E 023°31'0 0.0
2018-Apr-17 08:29N 37°52' E 023°31'0 0.0
2018-Apr-17 07:59N 37°52' E 023°31'0 0.0
2018-Apr-17 07:29N 37°52' E 023°31'0 0.1
2018-Apr-17 06:59N 37°52' E 023°31'0 0.1
2018-Apr-17 06:29N 37°52' E 023°31'0 0.1
2018-Apr-17 05:59N 37°52' E 023°31'0 0.0
2018-Apr-17 05:29N 37°52' E 023°31'0 0.0
2018-Apr-17 04:59N 37°52' E 023°31'0 0.1
2018-Apr-17 04:29N 37°52' E 023°31'0 0.0
2018-Apr-17 03:59N 37°52' E 023°31'0 0.0
2018-Apr-17 03:29N 37°52' E 023°31'0 0.1
2018-Apr-17 02:59N 37°52' E 023°31'0 0.3
2018-Apr-17 02:29N 37°52' E 023°31'0 0.1
2018-Apr-17 01:59N 37°52' E 023°31'0 0.0
2018-Apr-17 01:29N 37°52' E 023°31'0 0.0
2018-Apr-17 00:59N 37°52' E 023°31'0 0.0
2018-Apr-17 00:29N 37°52' E 023°31'0 0.0
2018-Apr-16 23:59N 37°52' E 023°31'0 0.0
2018-Apr-16 23:29N 37°52' E 023°31'0 0.0
2018-Apr-16 22:59N 37°52' E 023°31'0 0.1
2018-Apr-16 22:29N 37°52' E 023°31'0 0.2
2018-Apr-16 21:59N 37°52' E 023°31'0 0.2
2018-Apr-16 21:29N 37°53' E 023°31'0 0.1
2018-Apr-16 20:59N 37°53' E 023°31'0 0.1
2018-Apr-16 20:29N 37°52' E 023°31'0 0.1
2018-Apr-16 19:59N 37°52' E 023°31'0 0.0
2018-Apr-16 19:29N 37°52' E 023°31'0 0.0
2018-Apr-16 18:59N 37°52' E 023°31'  

Dump ship's entire track history